Rio Congue — D6FN6 — position and weather

sailwx.info

Track history (hours):
 
Tides and Currents Weather Stations Pressure Air Temp Water Temp Dewpoint Dewpoint Depression Visibility Wind Speed Wind Dir Waves Ship Positions

Rio Congue

Last reported at 2018-Aug-14 17:15 UTC. Time now 2018-Aug-14 19:26 UTC.
Position N 36°35' W 000°38'.

Length 135 m; draft 4.5 m.

Type: Cargo ship. MMSI: 616905000.

Date/timePositionNaut miles runAvg speedWind from/ knotsBaromVisibWave heightAir tempDewpointWater temp
2018-Aug-14 17:15N 36°35' W 000°38'2 9.3
2018-Aug-14 17:00N 36°34' W 000°41'20410.5
2018-Aug-13 21:36N 36°03' W 004°50'1010.6
2018-Aug-13 20:38N 36°01' W 005°03'211.3
2018-Aug-13 20:29N 36°01' W 005°05'612.2
2018-Aug-13 20:00N 35°60' W 005°12'713.9
2018-Aug-13 19:30N 35°59' W 005°20'815.2
2018-Aug-13 19:00N 35°57' W 005°29'11310.0
2018-Aug-13 07:46N 35°00' W 007°29'10 9.7
2018-Aug-13 06:47N 34°54' W 007°39'3 9.6
2018-Aug-13 06:28N 34°53' W 007°42'78 9.2
2018-Aug-12 22:01N 34°05' W 008°56'0 8.3
2018-Aug-12 21:58N 34°05' W 008°56'5 8.3
2018-Aug-12 21:20N 34°01' W 009°01'3 8.2
2018-Aug-12 21:00N 33°60' W 009°04'4 8.0
2018-Aug-12 20:30N 33°57' W 009°08'6 7.9
2018-Aug-12 19:43N 33°54' W 009°14'2 7.8
2018-Aug-12 19:30N 33°52' W 009°15'4 7.8
2018-Aug-12 19:00N 33°50' W 009°19'5 7.6
2018-Aug-12 18:21N 33°47' W 009°24'3 7.6
2018-Aug-12 17:59N 33°45' W 009°26'9 7.9
2018-Aug-12 16:48N 33°40' W 009°35'13 8.0
2018-Aug-12 15:07N 33°31' W 009°48'1 8.0
2018-Aug-12 15:00N 33°31' W 009°49'13 8.0
2018-Aug-12 13:22N 33°20' W 009°58'304 6.6
2018-Aug-10 15:16N 29°04' W 013°09'2 6.9
2018-Aug-10 15:00N 29°02' W 013°10'3 6.8
2018-Aug-10 14:30N 28°59' W 013°12'3 6.5
2018-Aug-10 13:58N 28°56' W 013°14'3 6.4
2018-Aug-10 13:26N 28°53' W 013°16'3 6.5
2018-Aug-10 13:00N 28°51' W 013°17'3 6.9
2018-Aug-10 12:30N 28°47' W 013°18'4 7.4
2018-Aug-10 12:00N 28°44' W 013°20'4 7.4
2018-Aug-10 11:30N 28°41' W 013°22'4 7.5
2018-Aug-10 11:00N 28°37' W 013°24'58 6.6
2018-Aug-10 02:15N 27°47' W 013°58'2 7.2
2018-Aug-10 02:00N 27°46' W 013°60'  
Track history (hours):
 
Tides and Currents Weather Stations Pressure Air Temp Water Temp Dewpoint Dewpoint Depression Visibility Wind Speed Wind Dir Waves Ship Positions

Rio Congue

Last reported at 2018-Aug-14 17:15 UTC. Time now 2018-Aug-14 19:26 UTC.
Position N 36°35' W 000°38'.

Length 135 m; draft 4.5 m.

Type: Cargo ship. MMSI: 616905000.

Date/timePositionNaut miles runAvg speedWind from/ knotsBaromVisibWave heightAir tempDewpointWater temp
2018-Aug-14 17:15N 36°35' W 000°38'2 9.3
2018-Aug-14 17:00N 36°34' W 000°41'20410.5
2018-Aug-13 21:36N 36°03' W 004°50'1010.6
2018-Aug-13 20:38N 36°01' W 005°03'211.3
2018-Aug-13 20:29N 36°01' W 005°05'612.2
2018-Aug-13 20:00N 35°60' W 005°12'713.9
2018-Aug-13 19:30N 35°59' W 005°20'815.2
2018-Aug-13 19:00N 35°57' W 005°29'11310.0
2018-Aug-13 07:46N 35°00' W 007°29'10 9.7
2018-Aug-13 06:47N 34°54' W 007°39'3 9.6
2018-Aug-13 06:28N 34°53' W 007°42'78 9.2
2018-Aug-12 22:01N 34°05' W 008°56'0 8.3
2018-Aug-12 21:58N 34°05' W 008°56'5 8.3
2018-Aug-12 21:20N 34°01' W 009°01'3 8.2
2018-Aug-12 21:00N 33°60' W 009°04'4 8.0
2018-Aug-12 20:30N 33°57' W 009°08'6 7.9
2018-Aug-12 19:43N 33°54' W 009°14'2 7.8
2018-Aug-12 19:30N 33°52' W 009°15'4 7.8
2018-Aug-12 19:00N 33°50' W 009°19'5 7.6
2018-Aug-12 18:21N 33°47' W 009°24'3 7.6
2018-Aug-12 17:59N 33°45' W 009°26'9 7.9
2018-Aug-12 16:48N 33°40' W 009°35'13 8.0
2018-Aug-12 15:07N 33°31' W 009°48'1 8.0
2018-Aug-12 15:00N 33°31' W 009°49'13 8.0
2018-Aug-12 13:22N 33°20' W 009°58'304 6.6
2018-Aug-10 15:16N 29°04' W 013°09'2 6.9
2018-Aug-10 15:00N 29°02' W 013°10'3 6.8
2018-Aug-10 14:30N 28°59' W 013°12'3 6.5
2018-Aug-10 13:58N 28°56' W 013°14'3 6.4
2018-Aug-10 13:26N 28°53' W 013°16'3 6.5
2018-Aug-10 13:00N 28°51' W 013°17'3 6.9
2018-Aug-10 12:30N 28°47' W 013°18'4 7.4
2018-Aug-10 12:00N 28°44' W 013°20'4 7.4
2018-Aug-10 11:30N 28°41' W 013°22'4 7.5
2018-Aug-10 11:00N 28°37' W 013°24'58 6.6
2018-Aug-10 02:15N 27°47' W 013°58'2 7.2
2018-Aug-10 02:00N 27°46' W 013°60'  

Dump ship's entire track history